Time;durP1;ratioP1;P1;durP2;ratioP2;P2;SDS_P1;SDS_P2;PMS_P1;PMS_P2;Temp;Humidity;BMP_temperature;BMP_pressure;BME280_temperature;BME280_humidity;BME280_pressure;Samples;Min_cycle;Max_cycle;Signal;HPM_P1;HPM_P2
2022/11/01 00:00:05;;;;;;;1.58;1.00;;;;;;;;;;6296984;22;20015;-84
2022/11/01 00:02:38;;;;;;;1.92;1.30;;;;;;;;;;6325282;22;19999;-83
2022/11/01 00:05:03;;;;;;;1.67;1.05;;;;;;;;;;6272706;22;20030;-84
2022/11/01 00:07:29;;;;;;;1.45;1.05;;;;;;;;;;6298064;22;20026;-84
2022/11/01 00:09:54;;;;;;;2.28;1.10;;;;;;;;;;6303419;22;20015;-84
2022/11/01 00:12:20;;;;;;;1.88;1.17;;;;;;;;;;6278048;22;20015;-86
2022/11/01 00:14:46;;;;;;;3.42;1.35;;;;;;;;;;6303684;22;20010;-86
2022/11/01 00:17:11;;;;;;;2.15;1.20;;;;;;;;;;6279341;22;19991;-85
2022/11/01 00:19:38;;;;;;;1.92;1.10;;;;;;;;;;6305270;22;20042;-86
2022/11/01 00:22:03;;;;;;;1.77;1.20;;;;;;;;;;6277105;22;19996;-86
2022/11/01 00:24:30;;;;;;;2.28;1.10;;;;;;;;;;6302730;22;20123;-85
2022/11/01 00:26:56;;;;;;;2.10;1.30;;;;;;;;;;6276250;22;19997;-85
2022/11/01 00:29:22;;;;;;;2.33;1.60;;;;;;;;;;6273879;22;20004;-86
2022/11/01 00:31:47;;;;;;;2.13;1.50;;;;;;;;;;6302588;22;19999;-84
2022/11/01 00:34:14;;;;;;;1.80;1.30;;;;;;;;;;6276005;22;20030;-85
2022/11/01 00:36:41;;;;;;;2.53;1.50;;;;;;;;;;6328069;22;20003;-85
2022/11/01 00:39:06;;;;;;;2.10;1.40;;;;;;;;;;6278514;22;20000;-85
2022/11/01 00:41:32;;;;;;;2.55;1.20;;;;;;;;;;6278839;22;19999;-85
2022/11/01 00:44:00;;;;;;;1.63;1.10;;;;;;;;;;6278398;22;20040;-85
2022/11/01 00:46:29;;;;;;;1.90;1.27;;;;;;;;;;6328924;22;20007;-86
2022/11/01 00:48:55;;;;;;;2.00;1.60;;;;;;;;;;6275224;22;20007;-84
2022/11/01 00:51:20;;;;;;;1.95;1.30;;;;;;;;;;6275776;22;20059;-85
2022/11/01 00:53:46;;;;;;;2.17;1.45;;;;;;;;;;6301238;22;20014;-84
2022/11/01 00:56:11;;;;;;;2.58;1.50;;;;;;;;;;6301528;22;20026;-85
2022/11/01 00:58:37;;;;;;;1.80;1.30;;;;;;;;;;6298175;22;20071;-84
2022/11/01 01:01:03;;;;;;;;;;;;;;;;;;6300092;22;20014;-84
2022/11/01 01:03:29;;;;;;;2.75;1.38;;;;;;;;;;6330833;22;20315;-84
2022/11/01 01:05:56;;;;;;;1.92;1.30;;;;;;;;;;6306727;22;19999;-85
2022/11/01 01:08:21;;;;;;;3.22;1.30;;;;;;;;;;6279279;22;20103;-85
2022/11/01 01:10:48;;;;;;;1.92;1.30;;;;;;;;;;6331249;22;20003;-85
2022/11/01 01:13:23;;;;;;;2.05;1.30;;;;;;;;;;6305967;22;20011;-86
2022/11/01 01:15:49;;;;;;;2.10;1.48;;;;;;;;;;6279226;22;19995;-85
2022/11/01 01:18:15;;;;;;;3.45;1.30;;;;;;;;;;6305186;22;20027;-85
2022/11/01 01:20:40;;;;;;;3.15;1.50;;;;;;;;;;6278986;22;20003;-84
2022/11/01 01:23:07;;;;;;;2.63;1.42;;;;;;;;;;6304107;22;20011;-85
2022/11/01 01:25:33;;;;;;;2.08;1.42;;;;;;;;;;6303670;22;19995;-84
2022/11/01 01:27:59;;;;;;;2.42;1.30;;;;;;;;;;6305322;22;20041;-85
2022/11/01 01:30:25;;;;;;;3.30;1.38;;;;;;;;;;6305670;22;19999;-86
2022/11/01 01:32:51;;;;;;;2.28;1.40;;;;;;;;;;6280931;22;20005;-84
2022/11/01 01:35:16;;;;;;;3.30;1.30;;;;;;;;;;6280715;22;20007;-86
2022/11/01 01:37:43;;;;;;;2.13;1.40;;;;;;;;;;6306308;22;20021;-84
2022/11/01 01:40:09;;;;;;;2.88;1.30;;;;;;;;;;6280456;22;20050;-85
2022/11/01 01:42:40;;;;;;;1.98;1.40;;;;;;;;;;6332215;22;20003;-86
2022/11/01 01:45:34;;;;;;;2.92;1.20;;;;;;;;;;6330793;22;20010;-84
2022/11/01 01:48:09;;;;;;;2.33;1.35;;;;;;;;;;6297096;22;20180;-84
2022/11/01 01:50:37;;;;;;;3.47;1.50;;;;;;;;;;6301982;22;20011;-85
2022/11/01 01:53:10;;;;;;;2.10;1.40;;;;;;;;;;6327974;22;20011;-84
2022/11/01 01:55:55;;;;;;;2.75;1.50;;;;;;;;;;6298305;22;20363;-85
2022/11/01 01:58:22;;;;;;;3.17;1.50;;;;;;;;;;6299375;22;20014;-85
2022/11/01 02:00:48;;;;;;;2.50;1.38;;;;;;;;;;6273296;22;20011;-84
2022/11/01 02:03:13;;;;;;;2.92;1.40;;;;;;;;;;6299855;22;20018;-84
2022/11/01 02:05:42;;;;;;;4.93;3.03;;;;;;;;;;6274437;22;20114;-83
2022/11/01 02:08:09;;;;;;;2.28;1.50;;;;;;;;;;6274109;22;20008;-83
2022/11/01 02:10:34;;;;;;;2.20;1.33;;;;;;;;;;6300740;22;20006;-84
2022/11/01 02:13:00;;;;;;;3.13;1.52;;;;;;;;;;6299081;22;20045;-84
2022/11/01 02:15:33;;;;;;;2.88;1.50;;;;;;;;;;6274634;22;20090;-84
2022/11/01 02:18:11;;;;;;;2.38;1.30;;;;;;;;;;6277036;22;20010;-85
2022/11/01 02:20:57;;;;;;;2.88;1.60;;;;;;;;;;6276562;22;20447;-85
2022/11/01 02:23:31;;;;;;;1.50;1.20;;;;;;;;;;6304268;22;20018;-84
2022/11/01 02:26:09;;;;;;;2.15;1.33;;;;;;;;;;6329768;22;20011;-85
2022/11/01 02:29:00;;;;;;;2.42;1.40;;;;;;;;;;6305452;22;20011;-85
2022/11/01 02:31:45;;;;;;;2.25;1.40;;;;;;;;;;6302824;22;20021;-84
2022/11/01 02:34:34;;;;;;;2.50;1.50;;;;;;;;;;6304115;22;20015;-84
2022/11/01 02:37:11;;;;;;;2.92;1.45;;;;;;;;;;6320793;22;20007;-86
2022/11/01 02:39:38;;;;;;;3.33;1.50;;;;;;;;;;6306006;22;20044;-85
2022/11/01 02:42:08;;;;;;;4.82;3.13;;;;;;;;;;6330950;22;20000;-85
2022/11/01 02:44:34;;;;;;;2.53;1.60;;;;;;;;;;6304971;22;20007;-86
2022/11/01 02:47:00;;;;;;;4.20;1.63;;;;;;;;;;6304904;22;19995;-84
2022/11/01 02:49:27;;;;;;;2.00;1.38;;;;;;;;;;6304443;22;20026;-86
2022/11/01 02:51:53;;;;;;;3.33;1.70;;;;;;;;;;6329890;22;20400;-85
2022/11/01 02:54:22;;;;;;;2.20;1.50;;;;;;;;;;6304965;22;20057;-84
2022/11/01 02:56:49;;;;;;;2.40;1.30;;;;;;;;;;6304644;22;20025;-86
2022/11/01 02:59:22;;;;;;;3.17;1.48;;;;;;;;;;6279735;22;20015;-85
2022/11/01 03:01:57;;;;;;;2.83;1.40;;;;;;;;;;6305553;22;20007;-85
2022/11/01 03:04:23;;;;;;;2.20;1.13;;;;;;;;;;6305594;22;20027;-85
2022/11/01 03:06:50;;;;;;;5.57;1.40;;;;;;;;;;6306298;22;20063;-85
2022/11/01 03:09:17;;;;;;;2.70;1.45;;;;;;;;;;6330502;22;20034;-86
2022/11/01 03:12:01;;;;;;;1.90;1.38;;;;;;;;;;6330964;22;20010;-85
2022/11/01 03:14:33;;;;;;;2.63;1.48;;;;;;;;;;6304791;22;20011;-87
2022/11/01 03:17:16;;;;;;;1.73;1.40;;;;;;;;;;6333406;22;20015;-86
2022/11/01 03:19:55;;;;;;;2.58;1.50;;;;;;;;;;6332503;22;20027;-86
2022/11/01 03:22:47;;;;;;;4.57;1.60;;;;;;;;;;6334106;22;20018;-85
2022/11/01 03:25:41;;;;;;;2.40;1.60;;;;;;;;;;6308405;22;20018;-86
2022/11/01 03:28:28;;;;;;;2.30;1.48;;;;;;;;;;6335431;22;20011;-86
2022/11/01 03:30:56;;;;;;;2.92;1.60;;;;;;;;;;6335094;22;19995;-85
2022/11/01 03:33:23;;;;;;;2.58;1.55;;;;;;;;;;6330447;22;20014;-84
2022/11/01 03:35:52;;;;;;;2.75;1.50;;;;;;;;;;6278693;22;20015;-86
2022/11/01 03:38:18;;;;;;;5.72;1.88;;;;;;;;;;6280373;22;20026;-85
2022/11/01 03:40:46;;;;;;;4.20;2.53;;;;;;;;;;6304731;22;20011;-87
2022/11/01 03:43:12;;;;;;;5.18;1.80;;;;;;;;;;6302937;22;20007;-84
2022/11/01 03:45:38;;;;;;;3.05;1.67;;;;;;;;;;6304638;22;20046;-85
2022/11/01 03:48:04;;;;;;;4.45;1.50;;;;;;;;;;6277761;22;20003;-86
2022/11/01 03:50:30;;;;;;;3.45;1.60;;;;;;;;;;6304243;22;20049;-84
2022/11/01 03:52:57;;;;;;;3.40;1.70;;;;;;;;;;6329734;22;20007;-84
2022/11/01 03:55:23;;;;;;;5.80;1.70;;;;;;;;;;6302600;22;20022;-86
2022/11/01 03:57:49;;;;;;;;;;;;;;;;;;6276657;22;20037;-85
2022/11/01 04:00:22;;;;;;;4.28;2.13;;;;;;;;;;6332166;22;19894;-86
2022/11/01 04:02:48;;;;;;;5.90;2.00;;;;;;;;;;6304995;22;20018;-85
2022/11/01 04:05:14;;;;;;;3.13;1.88;;;;;;;;;;6303423;22;20047;-85
2022/11/01 04:07:40;;;;;;;3.80;2.13;;;;;;;;;;6303920;22;20089;-85
2022/11/01 04:10:06;;;;;;;;;;;;;;;;;;6277183;22;20029;-85
2022/11/01 04:12:31;;;;;;;5.28;1.80;;;;;;;;;;6277119;22;19919;-86
2022/11/01 04:20:33;;;;;;;3.00;1.80;;;;;;;;;;6331652;22;20047;-86
2022/11/01 04:23:03;;;;;;;5.32;1.55;;;;;;;;;;6306034;22;20011;-86
2022/11/01 04:25:29;;;;;;;5.40;1.90;;;;;;;;;;6307562;22;20037;-86
2022/11/01 04:27:56;;;;;;;3.95;1.60;;;;;;;;;;6305891;22;20015;-85
2022/11/01 04:30:25;;;;;;;4.65;1.92;;;;;;;;;;6303756;22;19983;-85
2022/11/01 04:32:50;;;;;;;3.70;1.42;;;;;;;;;;6277981;22;20023;-85
2022/11/01 04:35:18;;;;;;;4.20;1.60;;;;;;;;;;6306307;22;20002;-86
2022/11/01 04:37:45;;;;;;;5.88;1.65;;;;;;;;;;6304453;22;20011;-88
2022/11/01 04:40:11;;;;;;;6.68;2.15;;;;;;;;;;6277535;22;19999;-86
2022/11/01 04:42:38;;;;;;;3.10;1.75;;;;;;;;;;6272581;22;20019;-85
2022/11/01 04:45:06;;;;;;;5.15;1.83;;;;;;;;;;6325329;22;20006;-85
2022/11/01 04:47:31;;;;;;;5.30;2.08;;;;;;;;;;6272918;22;20022;-84
2022/11/01 04:49:57;;;;;;;2.80;1.80;;;;;;;;;;6299893;22;19996;-84
2022/11/01 04:52:22;;;;;;;2.92;1.55;;;;;;;;;;6298861;22;20062;-84
2022/11/01 04:54:48;;;;;;;5.97;1.95;;;;;;;;;;6274947;22;20030;-84
2022/11/01 04:57:23;;;;;;;3.85;1.80;;;;;;;;;;6304250;22;20002;-85
2022/11/01 04:59:52;;;;;;;5.32;2.35;;;;;;;;;;6309938;22;20040;-87
2022/11/01 05:02:20;;;;;;;3.33;1.70;;;;;;;;;;6339104;22;19979;-82
2022/11/01 05:04:45;;;;;;;;;;;;;;;;;;6303404;22;20007;-84
2022/11/01 05:07:11;;;;;;;5.50;1.95;;;;;;;;;;6329809;22;19949;-86
2022/11/01 05:10:02;;;;;;;4.45;1.60;;;;;;;;;;6306854;22;20036;-84
2022/11/01 05:12:29;;;;;;;3.78;1.45;;;;;;;;;;6304315;22;20017;-83
2022/11/01 05:14:55;;;;;;;6.03;1.83;;;;;;;;;;6328765;22;19994;-86
2022/11/01 05:17:21;;;;;;;4.95;1.63;;;;;;;;;;6303207;22;20006;-86
2022/11/01 05:19:46;;;;;;;;;;;;;;;;;;6301157;22;20002;-84
2022/11/01 05:22:37;;;;;;;5.90;1.63;;;;;;;;;;6362158;22;19897;-84
2022/11/01 05:25:03;;;;;;;3.42;1.52;;;;;;;;;;6281088;22;20010;-83
2022/11/01 05:27:30;;;;;;;4.07;1.73;;;;;;;;;;6331041;22;19999;-84
2022/11/01 05:29:55;;;;;;;3.05;1.52;;;;;;;;;;6306152;22;20021;-84
2022/11/01 05:32:21;;;;;;;3.03;1.60;;;;;;;;;;6330636;22;20002;-84
2022/11/01 05:34:48;;;;;;;5.40;2.00;;;;;;;;;;6305997;22;20059;-83
2022/11/01 05:37:14;;;;;;;7.25;1.50;;;;;;;;;;6307739;22;19997;-83
2022/11/01 05:42:13;;;;;;;4.90;1.90;;;;;;;;;;6357229;22;20031;-83
2022/11/01 05:44:39;;;;;;;3.75;2.03;;;;;;;;;;6302723;22;20013;-84
2022/11/01 05:47:05;;;;;;;6.25;1.90;;;;;;;;;;6305805;22;20001;-83
2022/11/01 05:49:30;;;;;;;3.67;1.83;;;;;;;;;;6279344;22;20010;-82
2022/11/01 05:51:56;;;;;;;6.43;2.28;;;;;;;;;;6305158;22;20013;-82
2022/11/01 05:54:22;;;;;;;6.22;1.83;;;;;;;;;;6301375;22;20441;-83
2022/11/01 05:56:47;;;;;;;4.88;1.70;;;;;;;;;;6305536;22;19999;-82
2022/11/01 05:59:13;;;;;;;8.55;4.05;;;;;;;;;;6302801;22;20010;-82
2022/11/01 06:01:39;;;;;;;5.07;2.00;;;;;;;;;;6276906;22;20001;-83
2022/11/01 06:04:04;;;;;;;4.22;2.63;;;;;;;;;;6328133;22;20018;-83
2022/11/01 06:06:30;;;;;;;4.38;1.75;;;;;;;;;;6301056;22;20037;-84
2022/11/01 06:08:56;;;;;;;3.50;1.48;;;;;;;;;;6304532;22;20045;-83
2022/11/01 06:11:21;;;;;;;;;;;;;;;;;;6283264;22;20446;-83
2022/11/01 06:13:47;;;;;;;3.85;1.42;;;;;;;;;;6303256;22;19910;-83
2022/11/01 06:16:13;;;;;;;4.45;1.80;;;;;;;;;;6329871;22;20001;-83
2022/11/01 06:18:39;;;;;;;3.65;1.70;;;;;;;;;;6330579;22;20010;-83
2022/11/01 06:21:05;;;;;;;5.05;1.90;;;;;;;;;;6331072;22;20082;-82
2022/11/01 06:23:30;;;;;;;3.40;1.50;;;;;;;;;;6331491;22;20026;-83
2022/11/01 06:26:00;;;;;;;7.45;2.20;;;;;;;;;;6307506;22;19998;-84
2022/11/01 06:28:26;;;;;;;2.95;1.55;;;;;;;;;;6309244;22;20022;-84
2022/11/01 06:30:53;;;;;;;8.30;1.60;;;;;;;;;;6305750;22;20003;-85
2022/11/01 06:33:19;;;;;;;3.80;1.95;;;;;;;;;;6330509;22;20010;-86
2022/11/01 06:35:44;;;;;;;7.80;1.73;;;;;;;;;;6306466;22;20005;-85
2022/11/01 06:38:10;;;;;;;5.25;1.98;;;;;;;;;;6331107;22;20014;-84
2022/11/01 06:40:36;;;;;;;4.05;1.70;;;;;;;;;;6305310;22;20034;-82
2022/11/01 06:43:02;;;;;;;5.72;2.05;;;;;;;;;;6307354;22;20018;-84
2022/11/01 06:45:28;;;;;;;5.45;1.70;;;;;;;;;;6306866;22;20135;-84
2022/11/01 06:47:53;;;;;;;;;;;;;;;;;;6278744;22;20022;-83
2022/11/01 06:50:19;;;;;;;4.95;2.00;;;;;;;;;;6360399;22;20242;-84
2022/11/01 06:52:44;;;;;;;8.98;2.10;;;;;;;;;;6306280;22;20530;-84
2022/11/01 06:55:10;;;;;;;4.97;2.20;;;;;;;;;;6307892;22;20067;-84
2022/11/01 06:57:36;;;;;;;6.07;1.83;;;;;;;;;;6335780;22;19995;-83
2022/11/01 07:00:02;;;;;;;4.22;2.08;;;;;;;;;;6307609;22;20003;-84
2022/11/01 07:02:29;;;;;;;6.05;2.20;;;;;;;;;;6283738;22;20016;-85
2022/11/01 07:04:55;;;;;;;6.55;2.15;;;;;;;;;;6334338;22;20011;-85
2022/11/01 07:07:21;;;;;;;5.13;2.10;;;;;;;;;;6336151;22;20019;-84
2022/11/01 07:09:47;;;;;;;4.68;1.90;;;;;;;;;;6309736;22;20030;-84
2022/11/01 07:12:14;;;;;;;3.90;1.65;;;;;;;;;;6336551;22;20003;-84
2022/11/01 07:17:13;;;;;;;2.67;1.60;;;;;;;;;;6393045;22;20018;-84
2022/11/01 07:19:39;;;;;;;3.58;1.42;;;;;;;;;;6340515;22;20074;-84
2022/11/01 07:22:05;;;;;;;4.15;1.55;;;;;;;;;;6340257;22;20006;-86
2022/11/01 07:24:31;;;;;;;3.05;1.50;;;;;;;;;;6341586;22;20014;-85
2022/11/01 07:26:57;;;;;;;5.32;1.60;;;;;;;;;;6338975;22;20005;-84
2022/11/01 07:29:22;;;;;;;;;;;;;;;;;;6342218;22;20018;-86
2022/11/01 07:31:50;;;;;;;3.38;1.75;;;;;;;;;;6313091;22;20387;-84
2022/11/01 07:34:16;;;;;;;3.15;1.73;;;;;;;;;;6299529;22;20022;-85
2022/11/01 07:36:43;;;;;;;5.10;2.10;;;;;;;;;;6274230;22;20015;-87
2022/11/01 07:39:09;;;;;;;4.75;2.22;;;;;;;;;;6299000;22;20008;-84
2022/11/01 07:41:35;;;;;;;4.47;1.45;;;;;;;;;;6298034;22;20019;-84
2022/11/01 07:44:01;;;;;;;4.63;1.95;;;;;;;;;;6297797;22;20016;-83
2022/11/01 07:46:26;;;;;;;4.93;1.90;;;;;;;;;;6298642;22;20000;-87
2022/11/01 07:48:52;;;;;;;5.22;1.80;;;;;;;;;;6298132;22;20014;-86
2022/11/01 07:51:18;;;;;;;5.13;1.85;;;;;;;;;;6300976;22;20000;-85
2022/11/01 07:53:44;;;;;;;6.88;2.22;;;;;;;;;;6247595;22;20016;-83
2022/11/01 07:56:10;;;;;;;5.80;2.28;;;;;;;;;;6272537;22;20079;-86
2022/11/01 07:58:36;;;;;;;4.82;2.03;;;;;;;;;;6297915;22;20432;-85
2022/11/01 08:01:02;;;;;;;3.33;1.75;;;;;;;;;;6298348;22;20007;-84
2022/11/01 08:03:29;;;;;;;7.40;1.90;;;;;;;;;;6298136;22;20053;-84
2022/11/01 08:05:55;;;;;;;4.72;2.00;;;;;;;;;;6299228;22;19990;-85
2022/11/01 08:08:21;;;;;;;;;;;;;;;;;;6298630;22;20031;-84
2022/11/01 08:10:48;;;;;;;3.97;2.00;;;;;;;;;;6298389;22;19911;-85
2022/11/01 08:13:13;;;;;;;3.70;1.88;;;;;;;;;;6321772;22;20067;-83
2022/11/01 08:15:39;;;;;;;;;;;;;;;;;;6298667;22;19996;-85
2022/11/01 08:18:05;;;;;;;3.28;2.10;;;;;;;;;;6272908;22;19907;-84
2022/11/01 08:20:31;;;;;;;5.20;2.20;;;;;;;;;;6297141;22;20000;-85
2022/11/01 08:22:56;;;;;;;4.97;2.30;;;;;;;;;;6245842;22;20063;-85
2022/11/01 08:25:22;;;;;;;4.88;2.00;;;;;;;;;;6316991;22;20399;-84
2022/11/01 08:27:48;;;;;;;4.22;1.98;;;;;;;;;;6337645;22;20014;-85
2022/11/01 08:30:14;;;;;;;5.32;2.00;;;;;;;;;;6338795;22;19999;-86
2022/11/01 08:32:40;;;;;;;4.78;2.10;;;;;;;;;;6337119;22;20014;-87
2022/11/01 08:35:05;;;;;;;5.05;2.00;;;;;;;;;;6314924;22;19990;-85
2022/11/01 08:37:58;;;;;;;6.45;2.22;;;;;;;;;;6349223;22;20009;-86
2022/11/01 08:40:23;;;;;;;4.78;2.10;;;;;;;;;;6340478;22;20007;-85
2022/11/01 08:42:49;;;;;;;4.40;2.33;;;;;;;;;;6311260;22;19998;-85
2022/11/01 08:45:14;;;;;;;10.30;2.55;;;;;;;;;;6312557;22;20014;-86
2022/11/01 08:47:44;;;;;;;5.95;2.63;;;;;;;;;;6367041;22;20009;-84
2022/11/01 08:50:11;;;;;;;6.15;2.80;;;;;;;;;;6366412;22;20014;-84
2022/11/01 08:52:36;;;;;;;6.32;2.22;;;;;;;;;;6314897;22;20010;-84
2022/11/01 08:55:02;;;;;;;5.88;1.77;;;;;;;;;;6341052;22;20013;-87
2022/11/01 08:57:28;;;;;;;4.90;1.85;;;;;;;;;;6314357;22;20010;-86
2022/11/01 08:59:55;;;;;;;5.53;1.98;;;;;;;;;;6339847;22;20010;-85
2022/11/01 09:02:21;;;;;;;5.00;1.70;;;;;;;;;;6312891;22;19998;-84
2022/11/01 09:04:47;;;;;;;4.13;2.08;;;;;;;;;;6341225;22;20010;-85
2022/11/01 09:07:12;;;;;;;3.90;1.75;;;;;;;;;;6315094;22;20046;-85
2022/11/01 09:09:38;;;;;;;6.88;2.35;;;;;;;;;;6340009;22;20411;-86
2022/11/01 09:12:04;;;;;;;4.60;1.95;;;;;;;;;;6339777;22;20002;-87
2022/11/01 09:14:30;;;;;;;5.88;1.80;;;;;;;;;;6340452;22;20014;-87
2022/11/01 09:16:56;;;;;;;5.82;2.00;;;;;;;;;;6367592;22;19998;-85
2022/11/01 09:19:22;;;;;;;5.45;2.10;;;;;;;;;;6316240;22;20056;-86
2022/11/01 09:21:47;;;;;;;3.83;2.10;;;;;;;;;;6342163;22;20001;-86
2022/11/01 09:24:13;;;;;;;5.93;2.15;;;;;;;;;;6341779;22;20410;-86
2022/11/01 09:26:41;;;;;;;3.90;2.30;;;;;;;;;;6312399;22;20005;-87
2022/11/01 09:29:08;;;;;;;3.17;1.95;;;;;;;;;;6337466;22;20021;-85
2022/11/01 09:31:36;;;;;;;5.40;2.15;;;;;;;;;;6336620;22;19999;-85
2022/11/01 09:34:03;;;;;;;7.50;2.45;;;;;;;;;;6336118;22;20018;-85
2022/11/01 09:36:29;;;;;;;5.90;2.20;;;;;;;;;;6310235;22;19994;-85
2022/11/01 09:38:55;;;;;;;3.95;2.22;;;;;;;;;;6334353;22;20066;-85
2022/11/01 09:41:30;;;;;;;3.33;1.80;;;;;;;;;;6332334;22;20009;-85
2022/11/01 09:43:57;;;;;;;3.35;1.70;;;;;;;;;;6358572;22;20010;-84
2022/11/01 09:46:25;;;;;;;7.55;2.13;;;;;;;;;;6332702;22;20002;-86
2022/11/01 09:48:50;;;;;;;4.95;2.10;;;;;;;;;;6308323;22;20014;-85
2022/11/01 09:51:18;;;;;;;4.30;2.08;;;;;;;;;;6306802;22;20054;-87
2022/11/01 09:53:43;;;;;;;5.57;2.08;;;;;;;;;;6306653;22;20065;-86
2022/11/01 09:56:09;;;;;;;3.20;1.80;;;;;;;;;;6306979;22;19998;-84
2022/11/01 09:58:42;;;;;;;6.63;1.80;;;;;;;;;;6332272;22;20006;-86
2022/11/01 10:01:14;;;;;;;5.65;2.10;;;;;;;;;;6330960;22;20006;-86
2022/11/01 10:03:58;;;;;;;4.28;2.10;;;;;;;;;;6335105;22;20041;-85
2022/11/01 10:06:50;;;;;;;3.50;1.55;;;;;;;;;;6363003;22;20018;-85
2022/11/01 10:09:34;;;;;;;3.67;1.70;;;;;;;;;;6332049;22;20011;-86
2022/11/01 10:12:07;;;;;;;5.28;2.00;;;;;;;;;;6361596;22;19994;-86
2022/11/01 10:14:45;;;;;;;5.45;1.88;;;;;;;;;;6332558;22;20404;-85
2022/11/01 10:17:14;;;;;;;7.05;1.80;;;;;;;;;;6334029;22;20032;-84
2022/11/01 10:19:46;;;;;;;3.88;1.50;;;;;;;;;;6360734;22;20082;-85
2022/11/01 10:22:13;;;;;;;5.50;1.60;;;;;;;;;;6307877;22;20028;-84
2022/11/01 10:24:46;;;;;;;4.72;1.92;;;;;;;;;;6304952;22;20007;-84
2022/11/01 10:27:22;;;;;;;3.13;1.58;;;;;;;;;;6332169;22;20014;-85
2022/11/01 10:30:08;;;;;;;5.63;1.90;;;;;;;;;;6332684;22;20033;-83
2022/11/01 10:32:56;;;;;;;5.10;1.95;;;;;;;;;;6307958;22;20035;-85
2022/11/01 10:35:24;;;;;;;6.43;1.95;;;;;;;;;;6333072;22;20033;-85
2022/11/01 10:38:02;;;;;;;5.22;1.63;;;;;;;;;;6359402;22;20066;-86
2022/11/01 10:40:29;;;;;;;4.40;1.73;;;;;;;;;;6308967;22;20017;-84
2022/11/01 10:42:55;;;;;;;3.80;1.55;;;;;;;;;;6337563;22;20003;-86
2022/11/01 10:45:22;;;;;;;4.38;1.98;;;;;;;;;;6363415;22;20011;-85
2022/11/01 10:47:48;;;;;;;;;;;;;;;;;;6314038;22;19983;-87
2022/11/01 10:50:16;;;;;;;2.85;1.48;;;;;;;;;;6364940;22;19917;-86
2022/11/01 10:52:49;;;;;;;3.08;1.50;;;;;;;;;;6312059;22;20040;-83
2022/11/01 10:55:21;;;;;;;3.83;1.67;;;;;;;;;;6338476;22;20017;-86
2022/11/01 11:00:22;;;;;;;3.63;1.73;;;;;;;;;;6364283;22;20007;-86
2022/11/01 11:05:23;;;;;;;5.97;2.00;;;;;;;;;;6382926;22;20023;-85
2022/11/01 11:07:50;;;;;;;4.47;2.00;;;;;;;;;;6342992;22;20319;-85
2022/11/01 11:10:26;;;;;;;4.05;1.92;;;;;;;;;;6342982;22;20002;-86
2022/11/01 11:12:54;;;;;;;6.28;1.90;;;;;;;;;;6342873;22;20017;-84
2022/11/01 11:15:21;;;;;;;6.72;1.90;;;;;;;;;;6318159;22;20006;-86
2022/11/01 11:17:48;;;;;;;3.78;1.73;;;;;;;;;;6343393;22;20014;-86
2022/11/01 11:23:43;;;;;;;6.43;2.00;;;;;;;;;;6397185;22;20003;-86
2022/11/01 11:26:20;;;;;;;3.42;1.80;;;;;;;;;;6367173;22;20044;-85
2022/11/01 11:28:55;;;;;;;5.22;1.95;;;;;;;;;;6363055;22;20006;-85
2022/11/01 11:31:27;;;;;;;4.65;2.00;;;;;;;;;;6339902;22;20026;-84
2022/11/01 11:33:55;;;;;;;4.05;1.70;;;;;;;;;;6341818;22;20139;-83
2022/11/01 11:36:31;;;;;;;3.42;1.38;;;;;;;;;;6340005;22;20127;-84
2022/11/01 11:38:58;;;;;;;4.50;1.77;;;;;;;;;;6337070;22;20027;-84
2022/11/01 11:41:31;;;;;;;5.00;1.80;;;;;;;;;;6365902;22;20002;-83
2022/11/01 11:43:57;;;;;;;8.18;1.90;;;;;;;;;;6314916;22;20030;-85
2022/11/01 11:46:23;;;;;;;5.18;1.70;;;;;;;;;;6364135;22;20010;-85
2022/11/01 11:48:51;;;;;;;;;;;;;;;;;;6312883;22;20026;-84
2022/11/01 11:51:16;;;;;;;4.32;1.60;;;;;;;;;;6365585;22;19906;-87
2022/11/01 11:53:42;;;;;;;;;;;;;;;;;;6341312;22;20374;-85
2022/11/01 11:56:12;;;;;;;5.70;1.75;;;;;;;;;;6366947;22;19902;-85
2022/11/01 11:58:38;;;;;;;;;;;;;;;;;;6316813;22;20031;-85
2022/11/01 12:01:07;;;;;;;4.82;1.40;;;;;;;;;;6340828;22;19902;-85
2022/11/01 12:03:37;;;;;;;3.35;1.75;;;;;;;;;;6338064;22;20010;-85
2022/11/01 12:06:07;;;;;;;4.70;1.75;;;;;;;;;;6332672;22;20029;-83
2022/11/01 12:08:36;;;;;;;5.53;1.85;;;;;;;;;;6334951;22;20018;-87
2022/11/01 12:11:01;;;;;;;2.78;1.40;;;;;;;;;;6308539;22;20018;-86
2022/11/01 12:13:26;;;;;;;;;;;;;;;;;;6336164;22;20017;-87
2022/11/01 12:16:15;;;;;;;5.63;1.80;;;;;;;;;;6334682;22;19902;-84
2022/11/01 12:18:50;;;;;;;6.63;1.73;;;;;;;;;;6309567;22;20071;-86
2022/11/01 12:24:08;;;;;;;7.75;2.15;;;;;;;;;;6324497;22;20082;-85
2022/11/01 12:26:34;;;;;;;5.65;1.80;;;;;;;;;;6277448;22;20015;-86
2022/11/01 12:28:59;;;;;;;;;;;;;;;;;;6252910;22;20072;-84
2022/11/01 12:31:25;;;;;;;4.85;1.73;;;;;;;;;;6304472;22;19950;-84
2022/11/01 12:33:50;;;;;;;;;;;;;;;;;;6253837;22;20003;-84
2022/11/01 12:36:19;;;;;;;3.85;1.67;;;;;;;;;;6302980;22;19907;-85
2022/11/01 12:38:46;;;;;;;5.55;1.73;;;;;;;;;;6252226;22;19995;-87
2022/11/01 12:41:15;;;;;;;6.20;1.98;;;;;;;;;;6302036;22;20014;-85
2022/11/01 12:43:40;;;;;;;4.97;1.90;;;;;;;;;;6276799;22;20007;-85
2022/11/01 12:46:06;;;;;;;;;;;;;;;;;;6300718;22;20033;-84
2022/11/01 12:48:58;;;;;;;4.10;2.05;;;;;;;;;;6276496;22;19954;-84
2022/11/01 12:51:25;;;;;;;7.03;2.22;;;;;;;;;;6245135;22;20063;-84
2022/11/01 12:54:04;;;;;;;5.28;2.20;;;;;;;;;;6300119;22;20011;-83
2022/11/01 12:56:30;;;;;;;6.30;1.90;;;;;;;;;;6274760;22;20019;-86
2022/11/01 12:58:56;;;;;;;;;;;;;;;;;;6276991;22;20049;-83
2022/11/01 13:01:27;;;;;;;8.23;2.40;;;;;;;;;;6270823;22;19907;-84
2022/11/01 13:04:14;;;;;;;6.82;2.10;;;;;;;;;;6272667;22;20019;-84
2022/11/01 13:06:50;;;;;;;4.35;2.05;;;;;;;;;;6273621;22;20015;-84
2022/11/01 13:09:48;;;;;;;5.97;1.70;;;;;;;;;;6300423;22;20011;-83
2022/11/01 13:12:41;;;;;;;4.28;1.90;;;;;;;;;;6220171;22;20022;-84
2022/11/01 13:15:13;;;;;;;8.82;2.33;;;;;;;;;;6293761;22;20011;-85
2022/11/01 13:17:38;;;;;;;5.25;2.00;;;;;;;;;;6274485;22;20007;-84
2022/11/01 13:20:04;;;;;;;;;;;;;;;;;;6300765;22;19975;-84
2022/11/01 13:22:31;;;;;;;6.45;2.30;;;;;;;;;;6298639;22;19932;-83
2022/11/01 13:25:11;;;;;;;5.97;2.30;;;;;;;;;;6300206;22;20011;-86
2022/11/01 13:27:52;;;;;;;8.52;2.35;;;;;;;;;;6272995;22;20015;-86
2022/11/01 13:30:18;;;;;;;6.28;2.13;;;;;;;;;;6273425;22;20033;-84
2022/11/01 13:32:47;;;;;;;5.78;1.98;;;;;;;;;;6248785;22;19999;-85
2022/11/01 13:35:31;;;;;;;6.70;2.00;;;;;;;;;;6299422;22;20007;-84
2022/11/01 13:38:00;;;;;;;7.72;1.77;;;;;;;;;;6274817;22;20011;-85
2022/11/01 13:40:26;;;;;;;5.65;2.17;;;;;;;;;;6275048;22;20061;-85
2022/11/01 13:43:15;;;;;;;5.40;1.83;;;;;;;;;;6272789;22;20015;-84
2022/11/01 13:45:42;;;;;;;6.97;2.10;;;;;;;;;;6306215;22;20018;-83
2022/11/01 13:48:26;;;;;;;7.75;2.10;;;;;;;;;;6272196;22;20415;-84
2022/11/01 13:50:57;;;;;;;5.00;2.00;;;;;;;;;;6296159;22;20026;-84
2022/11/01 13:53:30;;;;;;;6.88;2.00;;;;;;;;;;6321122;22;20014;-85
2022/11/01 13:55:59;;;;;;;5.50;1.85;;;;;;;;;;6272360;22;20034;-85
2022/11/01 13:58:26;;;;;;;4.90;1.80;;;;;;;;;;6245820;22;19999;-84
2022/11/01 14:00:53;;;;;;;6.85;1.77;;;;;;;;;;6273379;22;20003;-85
2022/11/01 14:03:31;;;;;;;5.35;1.90;;;;;;;;;;6275295;22;20423;-84
2022/11/01 14:06:10;;;;;;;3.83;1.58;;;;;;;;;;6275102;22;20007;-84
2022/11/01 14:08:39;;;;;;;9.80;2.25;;;;;;;;;;6299690;22;20354;-85
2022/11/01 14:11:05;;;;;;;5.55;2.03;;;;;;;;;;6275217;22;20044;-84
2022/11/01 14:13:32;;;;;;;8.30;2.50;;;;;;;;;;6272421;22;20026;-86
2022/11/01 14:16:02;;;;;;;9.35;2.88;;;;;;;;;;6274643;22;20029;-84
2022/11/01 14:18:28;;;;;;;6.95;2.00;;;;;;;;;;6274450;22;20004;-84
2022/11/01 14:20:57;;;;;;;5.38;2.10;;;;;;;;;;6273310;22;20025;-83
2022/11/01 14:23:26;;;;;;;6.45;2.50;;;;;;;;;;6270902;22;20023;-84
2022/11/01 14:26:14;;;;;;;6.55;2.30;;;;;;;;;;6298095;22;20046;-87
2022/11/01 14:28:46;;;;;;;5.00;2.03;;;;;;;;;;6293547;22;20070;-85
2022/11/01 14:31:12;;;;;;;4.47;1.85;;;;;;;;;;6241021;22;20012;-85
2022/11/01 14:33:37;;;;;;;6.32;1.80;;;;;;;;;;6295816;22;20064;-84
2022/11/01 14:36:03;;;;;;;;;;;;;;;;;;6244780;22;20015;-85
2022/11/01 14:38:36;;;;;;;5.55;2.47;;;;;;;;;;6293500;22;19910;-87
2022/11/01 14:41:01;;;;;;;6.35;3.03;;;;;;;;;;6242697;22;20019;-86
2022/11/01 14:43:30;;;;;;;7.03;3.33;;;;;;;;;;6264481;22;19992;-85
2022/11/01 14:46:12;;;;;;;7.60;3.70;;;;;;;;;;6272305;22;20019;-83
2022/11/01 14:48:58;;;;;;;10.20;3.00;;;;;;;;;;6272576;22;20018;-85
2022/11/01 14:51:30;;;;;;;5.35;2.80;;;;;;;;;;6275511;22;20090;-85
2022/11/01 14:54:16;;;;;;;4.95;2.50;;;;;;;;;;6274764;22;20020;-85
2022/11/01 14:56:47;;;;;;;6.47;2.50;;;;;;;;;;6300592;22;20012;-85
2022/11/01 14:59:18;;;;;;;6.28;2.97;;;;;;;;;;6275784;22;20079;-84
2022/11/01 15:01:45;;;;;;;5.25;2.20;;;;;;;;;;6273330;22;20000;-86
2022/11/01 15:04:10;;;;;;;;;;;;;;;;;;6273438;22;20007;-86
2022/11/01 15:12:20;;;;;;;14.30;2.50;;;;;;;;;;6363569;22;20079;-85
2022/11/01 15:14:51;;;;;;;5.47;2.30;;;;;;;;;;6313089;22;20015;-85
2022/11/01 15:17:27;;;;;;;12.32;2.80;;;;;;;;;;6312948;22;19987;-86
2022/11/01 15:19:53;;;;;;;11.48;2.90;;;;;;;;;;6283546;22;20007;-87
2022/11/01 15:22:21;;;;;;;14.75;2.80;;;;;;;;;;6309785;22;20062;-86
2022/11/01 15:24:48;;;;;;;11.10;3.10;;;;;;;;;;6284826;22;20010;-87
2022/11/01 15:27:17;;;;;;;10.02;2.63;;;;;;;;;;6310218;22;20003;-85